createdAt,value
2018-09-22T00:00:22.374Z,0.00
2018-09-22T00:01:22.360Z,0.00
2018-09-22T00:02:22.353Z,0.00
2018-09-22T00:03:22.357Z,0.00
2018-09-22T00:04:22.329Z,0.00
2018-09-22T00:05:22.325Z,0.00
2018-09-22T00:06:22.312Z,0.00
2018-09-22T00:07:22.299Z,0.00
2018-09-22T00:08:22.333Z,0.00
2018-09-22T00:09:22.275Z,0.00
2018-09-22T00:10:22.263Z,0.00
2018-09-22T00:11:22.261Z,0.00
2018-09-22T00:12:22.242Z,0.00
2018-09-22T00:13:22.231Z,0.00
2018-09-22T00:14:22.237Z,0.00
2018-09-22T00:15:22.209Z,0.00
2018-09-22T00:16:22.198Z,0.00
2018-09-22T00:17:22.192Z,0.00
2018-09-22T00:18:22.176Z,0.00
2018-09-22T00:19:22.183Z,0.00
2018-09-22T00:20:22.156Z,0.00
2018-09-22T00:21:22.143Z,0.00
2018-09-22T00:22:22.134Z,0.00
2018-09-22T00:23:22.133Z,0.00
2018-09-22T00:24:22.124Z,0.00
2018-09-22T00:25:22.100Z,0.00
2018-09-22T00:26:22.089Z,0.00
2018-09-22T00:27:22.128Z,0.00
2018-09-22T00:28:22.067Z,0.00
2018-09-22T00:29:22.086Z,0.00
2018-09-22T00:30:22.057Z,0.00
2018-09-22T00:31:22.035Z,0.00
2018-09-22T00:32:22.024Z,0.00
2018-09-22T00:33:22.012Z,0.00
2018-09-22T00:34:22.017Z,0.00
2018-09-22T00:35:21.999Z,0.00
2018-09-22T00:36:21.986Z,0.00
2018-09-22T00:37:21.972Z,0.00
2018-09-22T00:38:21.959Z,0.00
2018-09-22T00:39:21.963Z,0.00
2018-09-22T00:40:21.936Z,0.00
2018-09-22T00:41:21.939Z,0.00
2018-09-22T00:42:21.914Z,0.00
2018-09-22T00:43:21.903Z,0.00
2018-09-22T00:44:21.908Z,0.00
2018-09-22T00:45:21.881Z,0.00
2018-09-22T00:46:21.874Z,0.00
2018-09-22T00:47:21.876Z,0.00
2018-09-22T00:48:21.850Z,0.00
2018-09-22T00:49:21.853Z,0.00
2018-09-22T00:50:21.826Z,0.00
2018-09-22T00:51:21.831Z,0.00
2018-09-22T00:52:21.805Z,0.00
2018-09-22T00:53:21.814Z,0.00
2018-09-22T00:54:21.799Z,0.00
2018-09-22T00:55:21.774Z,0.00
2018-09-22T00:56:21.761Z,0.00
2018-09-22T00:57:21.751Z,0.00
2018-09-22T00:58:21.745Z,0.00
2018-09-22T00:59:21.761Z,0.00
2018-09-22T01:00:21.717Z,0.00
2018-09-22T01:01:21.707Z,0.00
2018-09-22T01:02:21.698Z,0.00
2018-09-22T01:03:21.687Z,0.00
2018-09-22T01:04:21.695Z,0.00
2018-09-22T01:05:21.667Z,0.00
2018-09-22T01:06:21.653Z,0.00
2018-09-22T01:07:21.642Z,0.00
2018-09-22T01:08:21.630Z,0.00
2018-09-22T01:09:21.638Z,0.00
2018-09-22T01:10:21.609Z,0.00
2018-09-22T01:11:21.609Z,0.00
2018-09-22T01:12:21.587Z,0.00
2018-09-22T01:13:21.575Z,0.00
2018-09-22T01:14:21.588Z,0.00
2018-09-22T01:15:21.582Z,0.00
2018-09-22T01:16:21.542Z,0.00
2018-09-22T01:17:21.541Z,0.00
2018-09-22T01:18:21.520Z,0.00
2018-09-22T01:19:21.529Z,0.00
2018-09-22T01:20:21.506Z,0.00
2018-09-22T01:21:21.489Z,0.00
2018-09-22T01:22:21.477Z,0.00
2018-09-22T01:23:21.473Z,0.00
2018-09-22T01:24:21.474Z,0.00
2018-09-22T01:25:21.448Z,0.00
2018-09-22T01:26:21.442Z,0.00
2018-09-22T01:27:21.424Z,0.00
2018-09-22T01:28:21.414Z,0.00
2018-09-22T01:29:21.429Z,0.00
2018-09-22T01:30:21.391Z,0.00
2018-09-22T01:31:21.382Z,0.00
2018-09-22T01:32:21.383Z,0.00
2018-09-22T01:33:21.358Z,0.00
2018-09-22T01:34:21.362Z,0.00
2018-09-22T01:35:21.343Z,0.00
2018-09-22T01:36:21.328Z,0.00
2018-09-22T01:37:21.317Z,0.00
2018-09-22T01:38:21.304Z,0.00
2018-09-22T01:39:21.308Z,0.00
2018-09-22T01:40:21.284Z,0.00
2018-09-22T01:41:21.282Z,0.00
2018-09-22T01:42:21.262Z,0.00
2018-09-22T01:43:21.263Z,0.00
2018-09-22T01:44:21.275Z,0.00
2018-09-22T01:45:21.228Z,0.00
2018-09-22T01:46:21.217Z,0.00
2018-09-22T01:47:21.213Z,0.00
2018-09-22T01:48:21.201Z,0.00
2018-09-22T01:49:21.184Z,0.00
2018-09-22T01:50:21.190Z,0.00
2018-09-22T01:51:21.162Z,0.00
2018-09-22T01:52:21.161Z,0.00
2018-09-22T01:53:21.150Z,0.00
2018-09-22T01:54:21.143Z,0.00
2018-09-22T01:55:21.154Z,0.00
2018-09-22T01:56:21.110Z,0.00
2018-09-22T01:57:21.097Z,0.00
2018-09-22T01:58:21.091Z,0.00
2018-09-22T01:59:21.078Z,0.00
2018-09-22T02:00:21.091Z,0.00
2018-09-22T02:01:21.053Z,0.00
2018-09-22T02:02:21.043Z,0.00
2018-09-22T02:03:21.032Z,0.00
2018-09-22T02:04:21.021Z,0.00
2018-09-22T02:05:21.024Z,0.00
2018-09-22T02:06:21.011Z,0.00
2018-09-22T02:07:20.991Z,0.00
2018-09-22T02:08:20.976Z,0.00
2018-09-22T02:09:20.966Z,0.00
2018-09-22T02:10:20.969Z,0.00
2018-09-22T02:11:20.950Z,0.00
2018-09-22T02:12:20.945Z,0.00
2018-09-22T02:13:20.923Z,0.00
2018-09-22T02:14:20.912Z,0.00
2018-09-22T02:15:20.915Z,0.00
2018-09-22T02:16:20.896Z,0.00
2018-09-22T02:17:20.880Z,0.00
2018-09-22T02:18:20.884Z,0.00
2018-09-22T02:19:20.857Z,0.00
2018-09-22T02:20:20.865Z,0.00
2018-09-22T02:21:20.839Z,0.00
2018-09-22T02:22:20.823Z,0.00
2018-09-22T02:23:20.813Z,0.00
2018-09-22T02:24:20.819Z,0.00
2018-09-22T02:25:20.808Z,0.00
2018-09-22T02:26:20.781Z,0.00
2018-09-22T02:27:20.771Z,0.00
2018-09-22T02:28:20.758Z,0.00
2018-09-22T02:29:20.747Z,0.00
2018-09-22T02:30:20.765Z,0.00
2018-09-22T02:31:20.726Z,0.00
2018-09-22T02:32:20.716Z,0.00
2018-09-22T02:33:20.704Z,0.00
2018-09-22T02:34:20.692Z,0.00
2018-09-22T02:35:20.700Z,0.00
2018-09-22T02:36:20.683Z,0.00
2018-09-22T02:37:20.662Z,0.00
2018-09-22T02:38:20.650Z,0.00
2018-09-22T02:39:20.649Z,0.00
2018-09-22T02:40:20.657Z,0.00
2018-09-22T02:41:20.619Z,0.00
2018-09-22T02:42:20.619Z,0.00
2018-09-22T02:43:20.603Z,0.00
2018-09-22T02:44:20.590Z,0.00
2018-09-22T02:45:20.604Z,0.00
2018-09-22T02:46:20.563Z,0.00
2018-09-22T02:47:20.553Z,0.00
2018-09-22T02:48:20.553Z,0.00
2018-09-22T02:49:20.528Z,0.00
2018-09-22T02:50:20.532Z,0.00
2018-09-22T02:51:20.507Z,0.00
2018-09-22T02:52:20.497Z,0.00
2018-09-22T02:53:20.489Z,0.00
2018-09-22T02:54:20.484Z,0.00
2018-09-22T02:55:20.480Z,0.00
2018-09-22T02:56:20.458Z,0.00
2018-09-22T02:57:20.445Z,0.00
2018-09-22T02:58:20.433Z,0.00
2018-09-22T02:59:20.420Z,0.00
2018-09-22T03:00:20.443Z,0.00
2018-09-22T03:01:20.399Z,0.00
2018-09-22T03:02:20.387Z,0.00
2018-09-22T03:03:20.379Z,0.00
2018-09-22T03:04:20.366Z,0.00
2018-09-22T03:05:20.385Z,0.00
2018-09-22T03:06:20.349Z,0.00
2018-09-22T03:07:20.337Z,0.00
2018-09-22T03:08:20.324Z,0.00
2018-09-22T03:09:20.312Z,0.00
2018-09-22T03:10:20.334Z,0.00
2018-09-22T03:11:20.294Z,0.00
2018-09-22T03:12:20.291Z,0.00
2018-09-22T03:13:20.268Z,0.00
2018-09-22T03:14:20.258Z,0.00
2018-09-22T03:15:20.268Z,0.00
2018-09-22T03:16:20.254Z,0.00
2018-09-22T03:17:20.225Z,0.00
2018-09-22T03:18:20.216Z,0.00
2018-09-22T03:19:20.209Z,0.00
2018-09-22T03:20:20.190Z,0.00
2018-09-22T03:21:20.199Z,0.00
2018-09-22T03:22:20.169Z,0.00
2018-09-22T03:23:20.160Z,0.00
2018-09-22T03:24:20.156Z,0.00
2018-09-22T03:25:20.151Z,0.00
2018-09-22T03:26:20.147Z,0.00
2018-09-22T03:27:20.115Z,0.00
2018-09-22T03:28:20.107Z,0.00
2018-09-22T03:29:20.111Z,0.00
2018-09-22T03:30:20.083Z,0.00
2018-09-22T03:31:20.096Z,0.00
2018-09-22T03:32:20.061Z,0.00
2018-09-22T03:33:20.049Z,0.00
2018-09-22T03:34:20.039Z,0.00
2018-09-22T03:35:20.030Z,0.00
2018-09-22T03:36:20.045Z,0.00
2018-09-22T03:37:20.018Z,0.00
2018-09-22T03:38:19.995Z,0.00
2018-09-22T03:39:20.007Z,0.00
2018-09-22T03:40:19.979Z,0.00
2018-09-22T03:41:19.986Z,0.00
2018-09-22T03:42:19.958Z,0.00
2018-09-22T03:43:19.952Z,0.00
2018-09-22T03:44:19.930Z,0.00
2018-09-22T03:45:19.921Z,0.00
2018-09-22T03:46:19.923Z,0.00
2018-09-22T03:47:19.899Z,0.00
2018-09-22T03:48:19.885Z,0.00
2018-09-22T03:49:19.885Z,0.00
2018-09-22T03:50:19.865Z,0.00
2018-09-22T03:51:19.872Z,0.00
2018-09-22T03:52:19.859Z,0.00
2018-09-22T03:53:19.831Z,0.00
2018-09-22T03:54:19.823Z,0.00
2018-09-22T03:55:19.816Z,0.00
2018-09-22T03:56:19.817Z,0.00
2018-09-22T03:57:19.792Z,0.00
2018-09-22T03:58:19.777Z,0.00
2018-09-22T03:59:19.766Z,0.00
2018-09-22T04:00:19.755Z,0.00
2018-09-22T04:01:19.777Z,0.00
2018-09-22T04:02:19.734Z,0.00
2018-09-22T04:03:19.731Z,0.00
2018-09-22T04:04:19.718Z,0.00
2018-09-22T04:05:19.703Z,0.00
2018-09-22T04:06:19.703Z,0.00
2018-09-22T04:07:19.686Z,0.00
2018-09-22T04:08:19.673Z,0.00
2018-09-22T04:09:19.656Z,0.00
2018-09-22T04:10:19.647Z,0.00
2018-09-22T04:11:19.650Z,0.00
2018-09-22T04:12:19.630Z,0.00
2018-09-22T04:13:19.622Z,0.00
2018-09-22T04:14:19.601Z,0.00
2018-09-22T04:15:19.594Z,0.00
2018-09-22T04:16:19.596Z,0.00
2018-09-22T04:17:19.573Z,0.00
2018-09-22T04:18:19.561Z,0.00
2018-09-22T04:19:19.557Z,0.00
2018-09-22T04:20:19.548Z,0.00
2018-09-22T04:21:19.540Z,0.00
2018-09-22T04:22:19.514Z,0.00
2018-09-22T04:23:19.503Z,0.00
2018-09-22T04:24:19.492Z,0.00
2018-09-22T04:25:19.495Z,0.00
2018-09-22T04:26:19.494Z,0.00
2018-09-22T04:27:19.461Z,0.00
2018-09-22T04:28:19.449Z,0.00
2018-09-22T04:29:19.440Z,0.00
2018-09-22T04:30:19.428Z,0.00
2018-09-22T04:31:19.461Z,0.00
2018-09-22T04:32:19.404Z,0.00
2018-09-22T04:33:19.448Z,0.00
2018-09-22T04:34:19.384Z,0.00
2018-09-22T04:35:19.378Z,0.00
2018-09-22T04:36:19.369Z,0.00
2018-09-22T04:37:19.371Z,0.00
2018-09-22T04:38:19.349Z,0.00
2018-09-22T04:39:19.329Z,0.00
2018-09-22T04:40:19.318Z,0.00
2018-09-22T04:41:19.307Z,0.00
2018-09-22T04:42:19.313Z,0.00
2018-09-22T04:43:19.286Z,0.00
2018-09-22T04:44:19.285Z,0.00
2018-09-22T04:45:19.265Z,0.00
2018-09-22T04:46:19.253Z,0.00
2018-09-22T04:47:19.263Z,0.00
2018-09-22T04:48:19.242Z,0.00
2018-09-22T04:49:19.220Z,0.00
2018-09-22T04:50:19.221Z,0.00
2018-09-22T04:51:19.203Z,0.00
2018-09-22T04:52:19.206Z,0.00
2018-09-22T04:53:19.176Z,0.00
2018-09-22T04:54:19.166Z,0.00
2018-09-22T04:55:19.156Z,0.00
2018-09-22T04:56:19.157Z,0.00
2018-09-22T04:57:19.157Z,0.00
2018-09-22T04:58:19.123Z,0.00
2018-09-22T04:59:19.119Z,0.00
2018-09-22T05:00:19.101Z,0.00
2018-09-22T05:01:19.090Z,0.00
2018-09-22T05:02:19.104Z,0.00
2018-09-22T05:03:19.075Z,0.00
2018-09-22T05:04:19.062Z,0.00
2018-09-22T05:05:19.046Z,0.00
2018-09-22T05:06:19.036Z,0.00
2018-09-22T05:07:19.040Z,0.00
2018-09-22T05:08:19.025Z,0.00
2018-09-22T05:09:19.003Z,0.00
2018-09-22T05:10:19.000Z,0.00
2018-09-22T05:11:18.979Z,0.00
2018-09-22T05:12:18.983Z,0.00
2018-09-22T05:13:18.959Z,0.00
2018-09-22T05:14:18.960Z,0.00
2018-09-22T05:15:18.938Z,0.00
2018-09-22T05:16:18.934Z,0.00
2018-09-22T05:17:18.938Z,0.00
2018-09-22T05:18:18.904Z,0.00
2018-09-22T05:19:18.895Z,0.00
2018-09-22T05:20:18.899Z,0.00
2018-09-22T05:21:18.875Z,0.00
2018-09-22T05:22:18.879Z,0.00
2018-09-22T05:23:18.849Z,0.00
2018-09-22T05:24:18.838Z,0.00
2018-09-22T05:25:18.828Z,0.00
2018-09-22T05:26:18.824Z,0.00
2018-09-22T05:27:18.823Z,0.00
2018-09-22T05:28:18.797Z,0.00
2018-09-22T05:29:18.785Z,5.62
2018-09-22T05:30:18.775Z,5.62
2018-09-22T05:31:18.767Z,5.62
2018-09-22T05:32:18.788Z,5.62
2018-09-22T05:33:18.762Z,5.62
2018-09-22T05:34:18.731Z,5.62
2018-09-22T05:35:18.720Z,5.62
2018-09-22T05:36:18.709Z,5.62
2018-09-22T05:37:18.711Z,5.62
2018-09-22T05:38:18.698Z,5.62
2018-09-22T05:39:18.676Z,5.62
2018-09-22T05:40:18.665Z,5.62
2018-09-22T05:41:18.652Z,5.62
2018-09-22T05:42:18.658Z,5.62
2018-09-22T05:43:18.632Z,5.62
2018-09-22T05:44:18.637Z,5.62
2018-09-22T05:45:18.608Z,5.62
2018-09-22T05:46:18.598Z,5.62
2018-09-22T05:47:18.602Z,5.62
2018-09-22T05:48:18.579Z,11.25
2018-09-22T05:49:18.566Z,11.25
2018-09-22T05:50:18.575Z,11.25
2018-09-22T05:51:18.543Z,11.25
2018-09-22T05:52:18.549Z,11.25
2018-09-22T05:53:18.520Z,11.25
2018-09-22T05:54:18.512Z,11.25
2018-09-22T05:55:18.502Z,11.25
2018-09-22T05:56:18.499Z,11.25
2018-09-22T05:57:18.497Z,11.25
2018-09-22T05:58:18.470Z,11.25
2018-09-22T05:59:18.458Z,11.25
2018-09-22T06:00:18.448Z,11.25
2018-09-22T06:01:18.436Z,11.25
2018-09-22T06:02:18.461Z,11.25
2018-09-22T06:03:18.418Z,11.25
2018-09-22T06:04:18.403Z,11.25
2018-09-22T06:05:18.396Z,11.25
2018-09-22T06:06:18.387Z,11.25
2018-09-22T06:07:18.371Z,11.25
2018-09-22T06:08:18.373Z,11.25
2018-09-22T06:09:18.354Z,16.88
2018-09-22T06:10:18.336Z,16.88
2018-09-22T06:11:18.327Z,16.88
2018-09-22T06:12:18.329Z,16.88
2018-09-22T06:13:18.317Z,16.88
2018-09-22T06:14:18.293Z,16.88
2018-09-22T06:15:18.290Z,16.88
2018-09-22T06:16:18.271Z,16.88
2018-09-22T06:17:18.273Z,16.88
2018-09-22T06:18:18.274Z,16.88
2018-09-22T06:19:18.238Z,16.88
2018-09-22T06:20:18.228Z,22.50
2018-09-22T06:21:18.223Z,22.50
2018-09-22T06:22:18.205Z,22.50
2018-09-22T06:23:18.213Z,22.50
2018-09-22T06:24:18.182Z,22.50
2018-09-22T06:25:18.172Z,22.50
2018-09-22T06:26:18.166Z,22.50
2018-09-22T06:27:18.165Z,22.50
2018-09-22T06:28:18.162Z,22.50
2018-09-22T06:29:18.128Z,22.50
2018-09-22T06:30:18.118Z,22.50
2018-09-22T06:31:18.109Z,22.50
2018-09-22T06:32:18.098Z,28.12
2018-09-22T06:33:18.116Z,28.12
2018-09-22T06:34:18.078Z,22.50
2018-09-22T06:35:18.065Z,22.50
2018-09-22T06:36:18.052Z,22.50
2018-09-22T06:37:18.059Z,22.50
2018-09-22T06:38:18.052Z,22.50
2018-09-22T06:39:18.027Z,28.12
2018-09-22T06:40:18.015Z,22.50
2018-09-22T06:41:18.007Z,22.50
2018-09-22T06:42:17.992Z,22.50
2018-09-22T06:43:17.991Z,22.50
2018-09-22T06:44:17.965Z,22.50
2018-09-22T06:45:17.963Z,22.50
2018-09-22T06:46:17.981Z,22.50
2018-09-22T06:47:17.934Z,22.50
2018-09-22T06:48:17.937Z,22.50
2018-09-22T06:49:17.923Z,22.50
2018-09-22T06:50:17.902Z,22.50
2018-09-22T06:51:17.898Z,22.50
2018-09-22T06:52:17.880Z,22.50
2018-09-22T06:53:17.887Z,22.50
2018-09-22T06:54:17.857Z,28.12
2018-09-22T06:55:17.852Z,28.12
2018-09-22T06:56:17.840Z,28.12
2018-09-22T06:57:17.824Z,28.12
2018-09-22T06:58:17.844Z,28.12
2018-09-22T06:59:17.802Z,28.12
2018-09-22T07:00:17.791Z,28.12
2018-09-22T07:01:17.781Z,28.12
2018-09-22T07:02:17.778Z,28.12
2018-09-22T07:03:17.777Z,28.12
2018-09-22T07:04:17.746Z,28.12
2018-09-22T07:05:17.735Z,28.12
2018-09-22T07:06:17.781Z,28.12
2018-09-22T07:07:17.718Z,33.75
2018-09-22T07:08:17.724Z,33.75
2018-09-22T07:09:17.693Z,33.75
2018-09-22T07:10:17.683Z,33.75
2018-09-22T07:11:17.673Z,33.75
2018-09-22T07:12:17.669Z,33.75
2018-09-22T07:13:17.664Z,33.75
2018-09-22T07:14:17.638Z,33.75
2018-09-22T07:15:17.630Z,33.75
2018-09-22T07:16:17.620Z,33.75
2018-09-22T07:17:17.605Z,33.75
2018-09-22T07:18:17.621Z,33.75
2018-09-22T07:19:17.586Z,33.75
2018-09-22T07:20:17.574Z,33.75
2018-09-22T07:21:17.565Z,33.75
2018-09-22T07:22:17.550Z,33.75
2018-09-22T07:23:17.555Z,33.75
2018-09-22T07:24:17.541Z,33.75
2018-09-22T07:25:17.552Z,33.75
2018-09-22T07:26:17.508Z,33.75
2018-09-22T07:27:17.497Z,33.75
2018-09-22T07:28:17.502Z,39.38
2018-09-22T07:29:17.475Z,39.38
2018-09-22T07:30:17.481Z,39.38
2018-09-22T07:31:17.453Z,39.38
2018-09-22T07:32:17.443Z,39.38
2018-09-22T07:33:17.446Z,39.38
2018-09-22T07:34:17.420Z,39.38
2018-09-22T07:35:17.419Z,45.00
2018-09-22T07:36:17.424Z,45.00
2018-09-22T07:37:17.387Z,45.00
2018-09-22T07:38:17.405Z,45.00
2018-09-22T07:39:17.406Z,45.00
2018-09-22T07:40:17.353Z,45.00
2018-09-22T07:41:17.342Z,45.00
2018-09-22T07:42:17.347Z,45.00
2018-09-22T07:43:17.323Z,50.62
2018-09-22T07:44:17.325Z,50.62
2018-09-22T07:45:17.301Z,50.62
2018-09-22T07:46:17.289Z,50.62
2018-09-22T07:47:17.281Z,50.62
2018-09-22T07:48:17.281Z,45.00
2018-09-22T07:49:17.271Z,45.00
2018-09-22T07:50:17.246Z,45.00
2018-09-22T07:51:17.240Z,45.00
2018-09-22T07:52:17.275Z,45.00
2018-09-22T07:53:17.212Z,45.00
2018-09-22T07:54:17.236Z,45.00
2018-09-22T07:55:17.197Z,45.00
2018-09-22T07:56:17.181Z,45.00
2018-09-22T07:57:17.202Z,45.00
2018-09-22T07:58:17.159Z,45.00
2018-09-22T07:59:17.170Z,45.00
2018-09-22T08:00:17.173Z,50.62
2018-09-22T08:01:17.125Z,50.62
2018-09-22T08:02:17.115Z,50.62
2018-09-22T08:03:17.105Z,50.62
2018-09-22T08:04:17.107Z,50.62
2018-09-22T08:05:17.085Z,50.62
2018-09-22T08:06:17.084Z,50.62
2018-09-22T08:07:17.059Z,50.62
2018-09-22T08:08:17.049Z,50.62
2018-09-22T08:09:17.054Z,50.62
2018-09-22T08:10:17.027Z,50.62
2018-09-22T08:11:17.018Z,50.62
2018-09-22T08:12:17.018Z,50.62
2018-09-22T08:13:16.994Z,50.62
2018-09-22T08:14:16.999Z,56.25
2018-09-22T08:15:16.976Z,50.62
2018-09-22T08:16:16.962Z,50.62
2018-09-22T08:17:16.952Z,50.62
2018-09-22T08:18:16.952Z,50.62
2018-09-22T08:19:16.945Z,50.62
2018-09-22T08:20:16.924Z,50.62
2018-09-22T08:21:16.908Z,50.62
2018-09-22T08:22:16.898Z,56.25
2018-09-22T08:23:16.888Z,56.25
2018-09-22T08:24:16.900Z,56.25
2018-09-22T08:25:16.935Z,56.25
2018-09-22T08:26:16.852Z,56.25
2018-09-22T08:27:16.843Z,56.25
2018-09-22T08:28:16.831Z,56.25
2018-09-22T08:29:16.835Z,56.25
2018-09-22T08:30:16.824Z,56.25
2018-09-22T08:31:16.803Z,56.25
2018-09-22T08:32:16.802Z,56.25
2018-09-22T08:33:16.780Z,56.25
2018-09-22T08:34:16.796Z,56.25
2018-09-22T08:35:16.754Z,56.25
2018-09-22T08:36:16.800Z,56.25
2018-09-22T08:37:16.769Z,56.25
2018-09-22T08:38:16.724Z,56.25
2018-09-22T08:39:16.818Z,56.25
2018-09-22T08:40:16.701Z,56.25
2018-09-22T08:41:16.689Z,56.25
2018-09-22T08:42:16.679Z,56.25
2018-09-22T08:43:16.671Z,56.25
2018-09-22T08:44:16.770Z,56.25
2018-09-22T08:45:16.645Z,56.25
2018-09-22T08:46:16.634Z,56.25
2018-09-22T08:47:16.625Z,56.25
2018-09-22T08:48:16.620Z,56.25
2018-09-22T08:49:16.632Z,56.25
2018-09-22T08:50:16.629Z,56.25
2018-09-22T08:51:16.581Z,56.25
2018-09-22T08:52:16.571Z,56.25
2018-09-22T08:53:16.558Z,56.25
2018-09-22T08:54:16.550Z,61.88
2018-09-22T08:55:16.556Z,56.25
2018-09-22T08:56:16.535Z,61.88
2018-09-22T08:57:16.515Z,61.88
2018-09-22T08:58:16.504Z,61.88
2018-09-22T08:59:16.493Z,67.50
2018-09-22T09:00:16.500Z,67.50
2018-09-22T09:01:16.473Z,67.50
2018-09-22T09:02:16.471Z,67.50
2018-09-22T09:03:16.452Z,67.50
2018-09-22T09:04:16.440Z,67.50
2018-09-22T09:05:16.446Z,73.12
2018-09-22T09:06:16.417Z,73.12
2018-09-22T09:07:16.407Z,67.50
2018-09-22T09:08:16.403Z,67.50
2018-09-22T09:09:16.384Z,67.50
2018-09-22T09:10:16.391Z,61.88
2018-09-22T09:11:16.370Z,61.88
2018-09-22T09:12:16.351Z,61.88
2018-09-22T09:13:16.414Z,61.88
2018-09-22T09:14:16.334Z,61.88
2018-09-22T09:15:16.340Z,67.50
2018-09-22T09:16:16.313Z,67.50
2018-09-22T09:17:16.299Z,73.12
2018-09-22T09:18:16.285Z,73.12
2018-09-22T09:19:16.279Z,67.50
2018-09-22T09:20:16.285Z,67.50
2018-09-22T09:21:16.277Z,67.50
2018-09-22T09:22:16.244Z,67.50
2018-09-22T09:23:16.233Z,67.50
2018-09-22T09:24:16.221Z,67.50
2018-09-22T09:25:16.225Z,67.50
2018-09-22T09:26:16.204Z,67.50
2018-09-22T09:27:16.208Z,73.12
2018-09-22T09:28:16.185Z,73.12
2018-09-22T09:29:16.167Z,73.12
2018-09-22T09:30:16.170Z,73.12
2018-09-22T09:31:16.154Z,73.12
2018-09-22T09:32:16.143Z,73.12
2018-09-22T09:33:16.146Z,73.12
2018-09-22T09:34:16.112Z,67.50
2018-09-22T09:35:16.117Z,67.50
2018-09-22T09:36:16.092Z,67.50
2018-09-22T09:37:16.079Z,67.50
2018-09-22T09:38:16.073Z,67.50
2018-09-22T09:39:16.074Z,67.50
2018-09-22T09:40:16.065Z,73.12
2018-09-22T09:41:16.038Z,73.12
2018-09-22T09:42:16.026Z,73.12
2018-09-22T09:43:16.056Z,73.12
2018-09-22T09:44:16.018Z,78.75
2018-09-22T09:45:16.026Z,78.75
2018-09-22T09:46:15.980Z,78.75
2018-09-22T09:47:15.970Z,78.75
2018-09-22T09:48:15.959Z,78.75
2018-09-22T09:49:15.948Z,78.75
2018-09-22T09:50:15.962Z,78.75
2018-09-22T09:51:15.927Z,78.75
2018-09-22T09:52:15.927Z,78.75
2018-09-22T09:53:15.905Z,78.75
2018-09-22T09:54:15.894Z,78.75
2018-09-22T09:55:15.900Z,78.75
2018-09-22T09:56:15.881Z,78.75
2018-09-22T09:57:15.863Z,78.75
2018-09-22T09:58:15.859Z,84.38
2018-09-22T09:59:15.840Z,84.38
2018-09-22T10:00:15.845Z,84.38
2018-09-22T10:01:15.818Z,84.38
2018-09-22T10:02:15.821Z,84.38
2018-09-22T10:03:15.833Z,84.38
2018-09-22T10:04:15.796Z,84.38
2018-09-22T10:05:15.797Z,84.38
2018-09-22T10:06:15.765Z,84.38
2018-09-22T10:07:15.755Z,84.38
2018-09-22T10:08:15.743Z,84.38
2018-09-22T10:09:15.731Z,84.38
2018-09-22T10:10:15.893Z,84.38
2018-09-22T10:11:15.711Z,84.38
2018-09-22T10:12:15.699Z,78.75
2018-09-22T10:13:15.692Z,78.75
2018-09-22T10:14:16.410Z,78.75
2018-09-22T10:15:15.665Z,78.75
2018-09-22T10:16:15.678Z,78.75
2018-09-22T10:17:15.646Z,78.75
2018-09-22T10:18:15.646Z,78.75
2018-09-22T10:19:15.624Z,84.38
2018-09-22T10:20:15.669Z,84.38
2018-09-22T10:21:15.921Z,84.38
2018-09-22T10:22:15.601Z,84.38
2018-09-22T10:23:15.591Z,84.38
2018-09-22T10:24:15.573Z,90.00
2018-09-22T10:25:15.556Z,90.00
2018-09-22T10:26:15.569Z,90.00
2018-09-22T10:27:15.534Z,90.00
2018-09-22T10:28:15.564Z,90.00
2018-09-22T10:29:15.523Z,90.00
2018-09-22T10:30:15.501Z,90.00
2018-09-22T10:31:15.505Z,90.00
2018-09-22T10:32:15.481Z,90.00
2018-09-22T10:33:15.467Z,90.00
2018-09-22T10:34:15.475Z,90.00
2018-09-22T10:35:15.449Z,90.00
2018-09-22T10:36:15.453Z,90.00
2018-09-22T10:37:15.426Z,84.38
2018-09-22T10:38:15.414Z,84.38
2018-09-22T10:39:15.415Z,84.38
2018-09-22T10:40:15.395Z,84.38
2018-09-22T10:41:15.402Z,84.38
2018-09-22T10:42:15.438Z,84.38
2018-09-22T10:43:15.361Z,84.38
2018-09-22T10:44:15.355Z,78.75
2018-09-22T10:45:15.353Z,78.75
2018-09-22T10:46:15.345Z,78.75
2018-09-22T10:47:15.354Z,78.75
2018-09-22T10:48:15.305Z,78.75
2018-09-22T10:49:15.297Z,78.75
2018-09-22T10:50:15.285Z,84.38
2018-09-22T10:51:15.304Z,90.00
2018-09-22T10:52:15.263Z,90.00
2018-09-22T10:53:15.251Z,90.00
2018-09-22T10:54:15.241Z,90.00
2018-09-22T10:55:15.229Z,90.00
2018-09-22T10:56:15.238Z,90.00
2018-09-22T10:57:15.219Z,90.00
2018-09-22T10:58:15.199Z,90.00
2018-09-22T10:59:15.185Z,95.62
2018-09-22T11:00:15.175Z,95.62
2018-09-22T11:01:15.183Z,95.62
2018-09-22T11:02:15.159Z,95.62
2018-09-22T11:03:15.159Z,95.62
2018-09-22T11:04:15.133Z,95.62
2018-09-22T11:05:15.121Z,95.62
2018-09-22T11:06:15.125Z,95.62
2018-09-22T11:07:15.103Z,95.62
2018-09-22T11:08:15.091Z,101.25
2018-09-22T11:09:15.083Z,101.25
2018-09-22T11:10:15.074Z,101.25
2018-09-22T11:11:15.075Z,106.88
2018-09-22T11:12:15.046Z,106.88
2018-09-22T11:13:15.034Z,106.88
2018-09-22T11:14:15.038Z,106.88
2018-09-22T11:15:15.013Z,106.88
2018-09-22T11:16:15.021Z,101.25
2018-09-22T11:17:15.002Z,106.88
2018-09-22T11:18:14.981Z,106.88
2018-09-22T11:19:14.971Z,106.88
2018-09-22T11:20:14.974Z,106.88
2018-09-22T11:21:14.969Z,106.88
2018-09-22T11:22:14.937Z,106.88
2018-09-22T11:23:14.927Z,112.50
2018-09-22T11:24:14.917Z,118.12
2018-09-22T11:25:14.914Z,118.12
2018-09-22T11:26:14.914Z,118.12
2018-09-22T11:27:14.889Z,112.50
2018-09-22T11:28:14.871Z,112.50
2018-09-22T11:29:14.864Z,112.50
2018-09-22T11:30:14.855Z,112.50
2018-09-22T11:31:14.858Z,112.50
2018-09-22T11:32:14.832Z,118.12
2018-09-22T11:33:14.821Z,123.75
2018-09-22T11:34:14.813Z,129.38
2018-09-22T11:35:14.798Z,129.38
2018-09-22T11:36:14.810Z,129.38
2018-09-22T11:37:14.785Z,129.38
2018-09-22T11:38:14.773Z,129.38
2018-09-22T11:39:14.751Z,129.38
2018-09-22T11:40:14.741Z,129.38
2018-09-22T11:41:14.738Z,129.38
2018-09-22T11:42:14.735Z,129.38
2018-09-22T11:43:14.709Z,135.00
2018-09-22T11:44:14.697Z,140.62
2018-09-22T11:45:14.684Z,146.25
2018-09-22T11:46:14.683Z,146.25
2018-09-22T11:47:14.692Z,157.50
2018-09-22T11:48:14.658Z,146.25
2018-09-22T11:49:14.640Z,140.62
2018-09-22T11:50:14.631Z,140.62
2018-09-22T11:51:14.618Z,135.00
2018-09-22T11:52:14.624Z,140.62
2018-09-22T11:53:14.605Z,146.25
2018-09-22T11:54:14.588Z,151.88
2018-09-22T11:55:14.576Z,157.50
2018-09-22T11:56:14.564Z,151.88
2018-09-22T11:57:14.573Z,146.25
2018-09-22T11:58:14.543Z,151.88
2018-09-22T11:59:14.546Z,151.88
2018-09-22T12:00:14.521Z,146.25
2018-09-22T12:01:14.511Z,151.88
2018-09-22T12:02:14.513Z,157.50
2018-09-22T12:03:14.489Z,146.25
2018-09-22T12:04:14.481Z,151.88
2018-09-22T12:05:14.485Z,146.25
2018-09-22T12:06:14.521Z,174.38
2018-09-22T12:07:14.463Z,168.75
2018-09-22T12:08:14.437Z,157.50
2018-09-22T12:09:14.424Z,163.12
2018-09-22T12:10:14.416Z,180.00
2018-09-22T12:11:14.410Z,151.88
2018-09-22T12:12:14.409Z,140.62
2018-09-22T12:13:14.380Z,157.50
2018-09-22T12:14:14.371Z,168.75
2018-09-22T12:15:14.359Z,174.38
2018-09-22T12:16:14.359Z,219.38
2018-09-22T12:17:14.369Z,601.88
2018-09-22T12:18:14.325Z,1029.38
2018-09-22T12:19:14.315Z,1096.88
2018-09-22T12:20:14.309Z,1125.00
2018-09-22T12:21:14.323Z,1102.50
2018-09-22T12:22:14.298Z,1158.75
2018-09-22T12:23:14.281Z,1158.75
2018-09-22T12:24:14.260Z,1186.88
2018-09-22T12:25:14.251Z,1125.00
2018-09-22T12:26:14.240Z,1063.12
2018-09-22T12:27:14.247Z,1141.88
2018-09-22T12:28:14.218Z,1147.50
2018-09-22T12:29:14.214Z,1080.00
2018-09-22T12:30:14.201Z,1141.88
2018-09-22T12:31:14.186Z,1231.88
2018-09-22T12:32:14.192Z,1350.00
2018-09-22T12:33:14.171Z,1378.12
2018-09-22T12:34:14.153Z,1023.75
2018-09-22T12:35:14.149Z,1305.00
2018-09-22T12:36:14.132Z,1305.00
2018-09-22T12:37:14.143Z,1400.62
2018-09-22T12:38:14.110Z,1271.25
2018-09-22T12:39:14.098Z,1361.25
2018-09-22T12:40:14.088Z,1411.88
2018-09-22T12:41:14.085Z,1395.00
2018-09-22T12:42:14.102Z,961.88
2018-09-22T12:43:14.056Z,1456.88
2018-09-22T12:44:14.046Z,1293.75
2018-09-22T12:45:14.057Z,1068.75
2018-09-22T12:46:14.101Z,1395.00
2018-09-22T12:47:14.028Z,1355.62
2018-09-22T12:48:14.010Z,1395.00
2018-09-22T12:49:13.997Z,1355.62
2018-09-22T12:50:13.979Z,1355.62
2018-09-22T12:51:13.970Z,1400.62
2018-09-22T12:52:13.973Z,1417.50
2018-09-22T12:53:13.963Z,1417.50
2018-09-22T12:54:13.952Z,1395.00
2018-09-22T12:55:13.930Z,1282.50
2018-09-22T12:56:13.921Z,1248.75
2018-09-22T12:57:15.015Z,1096.88
2018-09-22T12:58:13.894Z,1445.62